Time;durP1;ratioP1;P1;durP2;ratioP2;P2;SDS_P1;SDS_P2;PMS_P1;PMS_P2;Temp;Humidity;BMP_temperature;BMP_pressure;BME280_temperature;BME280_humidity;BME280_pressure;Samples;Min_cycle;Max_cycle;Signal;HPM_P1;HPM_P2
2023/06/15 00:00:15;;;;;;;5.37;4.53;;;17.80;99.90;;;;;;6108604;23;20430;-86
2023/06/15 00:02:42;;;;;;;4.20;3.80;;;17.90;99.90;;;;;;6107140;23;20448;-87
2023/06/15 00:05:11;;;;;;;5.20;4.00;;;17.60;1.00;;;;;;6106770;23;20489;-86
2023/06/15 00:07:38;;;;;;;5.77;3.60;;;;;;;;;;6108061;23;20820;-86
2023/06/15 00:10:06;;;;;;;5.53;4.10;;;17.90;99.90;;;;;;6110126;23;20980;-87
2023/06/15 00:12:33;;;;;;;9.20;4.17;;;18.00;99.90;;;;;;6105866;23;20903;-86
2023/06/15 00:15:01;;;;;;;7.03;4.40;;;;;;;;;;6104823;23;20449;-85
2023/06/15 00:17:29;;;;;;;6.03;4.50;;;17.80;99.90;;;;;;6108973;23;20441;-86
2023/06/15 00:19:57;;;;;;;5.40;4.87;;;17.80;99.90;;;;;;6105667;23;20441;-86
2023/06/15 00:22:26;;;;;;;5.00;4.47;;;17.80;99.90;;;;;;6080277;23;20420;-87
2023/06/15 00:24:53;;;;;;;7.07;4.10;;;17.80;99.90;;;;;;6105707;23;20489;-85
2023/06/15 00:27:20;;;;;;;6.93;4.20;;;17.40;1.00;;;;;;6106932;23;20410;-86
2023/06/15 00:29:52;;;;;;;12.23;5.00;;;17.80;99.90;;;;;;6113687;23;20505;-86
2023/06/15 00:32:19;;;;;;;7.73;4.30;;;17.70;99.90;;;;;;6121895;23;20398;-86
2023/06/15 00:34:46;;;;;;;5.57;4.50;;;17.70;99.90;;;;;;6125836;23;20405;-85
2023/06/15 00:37:13;;;;;;;4.93;4.43;;;17.70;99.90;;;;;;6112986;23;20437;-86
2023/06/15 00:39:44;;;;;;;3.90;3.60;;;17.40;1.00;;;;;;6115791;23;20406;-86
2023/06/15 00:42:11;;;;;;;9.47;4.70;;;;;;;;;;6122894;23;20406;-86
2023/06/15 00:44:38;;;;;;;4.50;4.10;;;;;;;;;;6109007;23;20410;-86
2023/06/15 00:47:06;;;;;;;9.40;4.30;;;17.50;99.90;;;;;;6109392;23;20503;-86
2023/06/15 00:49:33;;;;;;;4.20;3.80;;;17.30;1.00;;;;;;6108404;23;20434;-86
2023/06/15 00:52:01;;;;;;;9.00;4.30;;;;;;;;;;6105790;23;20449;-86
2023/06/15 00:54:29;;;;;;;5.57;5.00;;;17.70;1.00;;;;;;6105468;23;20469;-86
2023/06/15 00:56:58;;;;;;;6.97;4.80;;;17.40;99.90;;;;;;6114391;23;20430;-85
2023/06/15 00:59:28;;;;;;;8.20;3.50;;;17.20;1.00;;;;;;6124239;23;20409;-85
2023/06/15 01:01:55;;;;;;;5.43;4.20;;;17.30;99.90;;;;;;6113859;23;20915;-86
2023/06/15 01:04:24;;;;;;;4.17;3.77;;;17.30;99.90;;;;;;6106903;23;20421;-86
2023/06/15 01:06:52;;;;;;;5.10;4.20;;;16.80;1.00;;;;;;6106735;23;20409;-86
2023/06/15 01:09:21;;;;;;;4.57;3.90;;;17.10;1.00;;;;;;6106763;23;20410;-86
2023/06/15 01:11:50;;;;;;;4.87;4.37;;;17.10;99.90;;;;;;6107578;23;20437;-86
2023/06/15 01:14:18;;;;;;;4.73;4.20;;;17.10;99.90;;;;;;6107810;23;20926;-86
2023/06/15 01:16:52;;;;;;;6.10;4.20;;;17.00;99.90;;;;;;6115732;23;20457;-86
2023/06/15 01:19:34;;;;;;;7.40;4.37;;;16.90;99.90;;;;;;6119601;23;20393;-86
2023/06/15 01:22:08;;;;;;;4.80;4.17;;;17.00;99.90;;;;;;6118268;23;20855;-86
2023/06/15 01:24:37;;;;;;;4.70;4.20;;;16.90;99.90;;;;;;6116257;23;20404;-86
2023/06/15 01:27:09;;;;;;;4.60;4.20;;;16.80;99.90;;;;;;6108133;23;20417;-86
2023/06/15 01:29:36;;;;;;;9.07;4.80;;;17.20;1.00;;;;;;6114784;23;20406;-86
2023/06/15 01:32:05;;;;;;;5.70;5.13;;;16.80;99.90;;;;;;6120364;23;20920;-86
2023/06/15 01:34:32;;;;;;;6.10;3.70;;;16.80;99.90;;;;;;6120590;23;20405;-86
2023/06/15 01:36:58;;;;;;;4.97;4.10;;;16.70;99.90;;;;;;6118599;23;20486;-86
2023/06/15 01:39:25;;;;;;;5.97;3.77;;;16.90;1.00;;;;;;6114574;23;20800;-86
2023/06/15 01:41:52;;;;;;;4.50;4.10;;;18.70;99.90;;;;;;6116529;23;20412;-85
2023/06/15 01:44:20;;;;;;;5.47;4.00;;;16.80;99.90;;;;;;6114290;23;20873;-85
2023/06/15 01:46:48;;;;;;;5.33;3.50;;;16.70;99.90;;;;;;6110639;23;20440;-85
2023/06/15 01:49:15;;;;;;;5.60;5.10;;;16.60;99.90;;;;;;6109659;23;20414;-85
2023/06/15 01:51:42;;;;;;;5.20;4.20;;;16.70;99.90;;;;;;6117202;23;20464;-85
2023/06/15 01:54:09;;;;;;;4.33;4.03;;;16.60;99.90;;;;;;6113405;23;20445;-85
2023/06/15 01:56:36;;;;;;;5.83;4.80;;;16.50;99.90;;;;;;6115512;23;20465;-85
2023/06/15 01:59:03;;;;;;;5.80;4.00;;;16.40;99.90;;;;;;6122584;23;20519;-85
2023/06/15 02:01:31;;;;;;;8.83;4.60;;;;;;;;;;6122820;23;20505;-85
2023/06/15 02:03:58;;;;;;;7.30;4.13;;;16.10;1.00;;;;;;6123436;23;20464;-87
2023/06/15 02:06:25;;;;;;;5.73;4.33;;;16.40;99.90;;;;;;6122781;23;20405;-86
2023/06/15 02:08:52;;;;;;;12.20;5.17;;;16.30;99.90;;;;;;6124199;23;20406;-86
2023/06/15 02:11:19;;;;;;;7.93;6.00;;;;;;;;;;6124670;23;20422;-85
2023/06/15 02:13:46;;;;;;;7.37;4.10;;;16.20;99.90;;;;;;6123837;23;20474;-86
2023/06/15 02:16:15;;;;;;;4.97;4.47;;;16.20;99.90;;;;;;6118988;23;20445;-86
2023/06/15 02:18:44;;;;;;;5.37;4.87;;;16.20;99.90;;;;;;6109206;23;20412;-86
2023/06/15 02:21:11;;;;;;;7.70;4.30;;;16.20;99.90;;;;;;6107445;23;20435;-86
2023/06/15 02:23:38;;;;;;;4.57;4.07;;;16.00;99.90;;;;;;6107643;23;20416;-87
2023/06/15 02:26:05;;;;;;;5.83;4.20;;;16.00;99.90;;;;;;6115930;23;20408;-86
2023/06/15 02:28:31;;;;;;;5.63;4.20;;;15.90;99.90;;;;;;6123754;23;20470;-86
2023/06/15 02:30:58;;;;;;;5.03;4.53;;;16.00;99.90;;;;;;6122970;23;20814;-86
2023/06/15 02:33:27;;;;;;;9.23;4.80;;;15.90;99.90;;;;;;6116917;23;20408;-85
2023/06/15 02:35:55;;;;;;;6.90;4.50;;;15.90;1.00;;;;;;6112404;23;20442;-85
2023/06/15 02:38:22;;;;;;;5.83;4.47;;;15.90;99.90;;;;;;6115986;23;20411;-87
2023/06/15 02:40:50;;;;;;;6.20;4.50;;;15.90;99.90;;;;;;6107630;23;20435;-86
2023/06/15 02:43:17;;;;;;;5.30;4.80;;;15.80;99.90;;;;;;6104207;23;20415;-86
2023/06/15 02:45:44;;;;;;;5.77;4.23;;;16.00;99.90;;;;;;6103891;23;20407;-86
2023/06/15 02:48:10;;;;;;;4.80;3.90;;;15.60;1.00;;;;;;6104274;23;20417;-86
2023/06/15 02:50:37;;;;;;;8.00;4.90;;;16.00;99.90;;;;;;6105751;23;20438;-86
2023/06/15 02:53:05;;;;;;;5.30;4.30;;;15.90;99.90;;;;;;6106572;23;20493;-86
2023/06/15 02:55:33;;;;;;;6.30;4.80;;;16.00;1.00;;;;;;6117956;23;20395;-85
2023/06/15 02:57:59;;;;;;;7.33;5.60;;;15.70;99.90;;;;;;6124650;23;20432;-85
2023/06/15 03:00:26;;;;;;;5.60;4.47;;;15.90;99.90;;;;;;6124649;23;20437;-85
2023/06/15 03:02:53;;;;;;;4.67;4.20;;;16.10;1.00;;;;;;6124063;23;20441;-85
2023/06/15 03:05:20;;;;;;;6.30;4.87;;;15.80;99.90;;;;;;6124251;23;20403;-85
2023/06/15 03:07:47;;;;;;;7.70;4.87;;;15.70;99.90;;;;;;6114042;23;20407;-86
2023/06/15 03:10:15;;;;;;;5.70;4.77;;;15.60;99.90;;;;;;6109203;23;20502;-87
2023/06/15 03:12:42;;;;;;;5.50;5.00;;;15.60;99.90;;;;;;6108583;23;20411;-85
2023/06/15 03:15:10;;;;;;;5.63;3.77;;;15.70;99.90;;;;;;6111410;23;20495;-85
2023/06/15 03:17:39;;;;;;;7.83;4.47;;;15.80;99.90;;;;;;6111417;23;20811;-86
2023/06/15 03:20:10;;;;;;;4.40;4.00;;;15.70;99.90;;;;;;6109413;23;20962;-86
2023/06/15 03:22:37;;;;;;;6.00;4.77;;;15.60;99.90;;;;;;6108934;23;20452;-86
2023/06/15 03:25:05;;;;;;;6.50;4.37;;;15.60;99.90;;;;;;6113698;23;20438;-86
2023/06/15 03:27:33;;;;;;;4.20;3.80;;;15.50;99.90;;;;;;6109591;23;20466;-85
2023/06/15 03:30:01;;;;;;;4.67;4.27;;;15.60;99.90;;;;;;6120428;23;20440;-85
2023/06/15 03:32:29;;;;;;;6.63;4.63;;;15.60;99.90;;;;;;6116516;23;20499;-86
2023/06/15 03:34:57;;;;;;;4.13;3.73;;;15.60;99.90;;;;;;6108497;23;20416;-86
2023/06/15 03:37:24;;;;;;;11.93;4.80;;;;;;;;;;6108740;23;20446;-86
2023/06/15 03:39:51;;;;;;;3.93;3.60;;;15.50;1.00;;;;;;6107973;23;20422;-86
2023/06/15 03:42:18;;;;;;;5.73;4.10;;;15.60;99.90;;;;;;6108339;23;20501;-86
2023/06/15 03:44:46;;;;;;;8.63;4.60;;;15.50;99.90;;;;;;6107651;23;20436;-87
2023/06/15 03:47:13;;;;;;;4.63;4.17;;;15.50;99.90;;;;;;6107892;23;20447;-86
2023/06/15 03:49:40;;;;;;;4.17;3.87;;;16.00;1.00;;;;;;6106449;23;20504;-86
2023/06/15 03:52:08;;;;;;;6.90;4.50;;;16.00;1.00;;;;;;6117890;23;20400;-85
2023/06/15 03:54:35;;;;;;;7.30;5.10;;;15.70;99.90;;;;;;6126404;23;20411;-84
2023/06/15 03:57:02;;;;;;;6.33;4.80;;;15.60;99.90;;;;;;6122607;23;20484;-86
2023/06/15 03:59:29;;;;;;;8.40;6.00;;;15.50;1.00;;;;;;6107628;23;20407;-86
2023/06/15 04:01:57;;;;;;;6.10;5.50;;;15.70;99.90;;;;;;6110660;23;20418;-86
2023/06/15 04:04:24;;;;;;;7.00;4.63;;;15.70;99.90;;;;;;6110543;23;20446;-87
2023/06/15 04:06:53;;;;;;;6.93;4.87;;;;;;;;;;6110903;23;20427;-86
2023/06/15 04:09:20;;;;;;;4.50;4.07;;;15.60;99.90;;;;;;6113046;23;20418;-86
2023/06/15 04:11:47;;;;;;;5.20;4.27;;;15.50;99.90;;;;;;6110496;23;20432;-86
2023/06/15 04:14:15;;;;;;;8.50;4.40;;;15.40;99.90;;;;;;6109628;23;20751;-86
2023/06/15 04:16:42;;;;;;;4.27;3.87;;;15.50;99.90;;;;;;6109834;23;20470;-86
2023/06/15 04:19:10;;;;;;;6.23;5.60;;;15.60;1.00;;;;;;6109902;23;20438;-87
2023/06/15 04:21:37;;;;;;;7.27;4.13;;;;;;;;;;6119114;23;20465;-85
2023/06/15 04:24:05;;;;;;;5.80;4.13;;;15.50;99.90;;;;;;6123082;23;20436;-85
2023/06/15 04:26:36;;;;;;;5.90;5.17;;;15.50;99.90;;;;;;6112749;23;20494;-85
2023/06/15 04:29:04;;;;;;;4.23;3.83;;;15.70;1.00;;;;;;6107901;23;20395;-86
2023/06/15 04:31:33;;;;;;;6.97;6.00;;;15.90;1.00;;;;;;6107562;23;20446;-86
2023/06/15 04:34:00;;;;;;;6.20;5.10;;;15.70;1.00;;;;;;6108584;23;20415;-86
2023/06/15 04:36:31;;;;;;;5.90;4.20;;;15.80;99.90;;;;;;6106962;23;20556;-86
2023/06/15 04:39:00;;;;;;;4.00;3.60;;;15.80;99.90;;;;;;6111014;23;20456;-85
2023/06/15 04:41:27;;;;;;;5.10;4.70;;;15.90;99.90;;;;;;6107693;23;20446;-85
2023/06/15 04:43:54;;;;;;;7.70;4.93;;;15.80;99.90;;;;;;6110396;23;20453;-86
2023/06/15 04:46:21;;;;;;;4.30;3.90;;;15.80;99.90;;;;;;6112809;23;20409;-86
2023/06/15 04:48:49;;;;;;;5.33;4.50;;;15.90;99.90;;;;;;6112692;23;20414;-87
2023/06/15 04:51:16;;;;;;;4.20;3.77;;;16.00;99.90;;;;;;6119277;23;20425;-86
2023/06/15 04:53:45;;;;;;;4.50;4.10;;;15.90;99.90;;;;;;6119537;23;20413;-86
2023/06/15 04:56:13;;;;;;;4.70;4.23;;;16.00;99.90;;;;;;6120051;23;20448;-87
2023/06/15 04:58:40;;;;;;;10.60;4.17;;;16.00;99.90;;;;;;6113198;23;20456;-86
2023/06/15 05:01:07;;;;;;;5.00;4.53;;;16.40;1.00;;;;;;6115657;23;20426;-85
2023/06/15 05:03:35;;;;;;;5.23;4.27;;;;;;;;;;6121533;23;20398;-85
2023/06/15 05:06:01;;;;;;;7.13;5.00;;;16.50;1.00;;;;;;6114024;23;20410;-86
2023/06/15 05:08:29;;;;;;;5.53;4.00;;;;;;;;;;6116609;23;20457;-86
2023/06/15 05:10:57;;;;;;;6.93;4.73;;;16.50;99.90;;;;;;6113248;23;20453;-86
2023/06/15 05:13:24;;;;;;;8.73;5.80;;;;;;;;;;6109560;23;20416;-86
2023/06/15 05:15:51;;;;;;;4.80;4.40;;;16.60;99.90;;;;;;6109101;23;20409;-86
2023/06/15 05:18:19;;;;;;;4.47;4.07;;;16.70;99.90;;;;;;6108992;23;20513;-86
2023/06/15 05:20:46;;;;;;;6.70;4.37;;;16.30;1.00;;;;;;6117707;23;20428;-84
2023/06/15 05:23:22;;;;;;;5.07;4.17;;;16.50;99.90;;;;;;6123726;23;20417;-85
2023/06/15 05:25:49;;;;;;;10.70;5.13;;;16.70;99.90;;;;;;6120831;23;20403;-85
2023/06/15 05:28:19;;;;;;;6.83;4.80;;;16.60;1.00;;;;;;6117827;23;20408;-86
2023/06/15 05:30:47;;;;;;;5.50;4.10;;;;;;;;;;6106646;23;20849;-87
2023/06/15 05:33:14;;;;;;;6.40;4.90;;;16.80;99.90;;;;;;6107492;23;20434;-87
2023/06/15 05:35:40;;;;;;;6.27;4.80;;;16.70;99.90;;;;;;6105096;23;20949;-86
2023/06/15 05:38:07;;;;;;;6.60;4.43;;;16.60;99.90;;;;;;6105451;23;20452;-87
2023/06/15 05:40:34;;;;;;;9.07;4.90;;;16.70;99.90;;;;;;6104044;23;20460;-87
2023/06/15 05:43:02;;;;;;;6.47;4.00;;;16.70;99.90;;;;;;6104404;23;20441;-88
2023/06/15 05:45:31;;;;;;;5.87;4.50;;;16.70;99.90;;;;;;6103616;23;20495;-88
2023/06/15 05:47:57;;;;;;;4.90;4.07;;;16.60;1.00;;;;;;6104760;23;20409;-88
2023/06/15 05:50:24;;;;;;;6.03;4.27;;;16.80;99.90;;;;;;6103708;23;20455;-88
2023/06/15 05:53:07;;;;;;;12.70;5.80;;;16.50;1.00;;;;;;6106256;23;20421;-87
2023/06/15 05:55:34;;;;;;;11.67;5.00;;;16.80;99.90;;;;;;6120119;23;20381;-86
2023/06/15 05:58:02;;;;;;;9.37;4.60;;;16.80;99.90;;;;;;6124322;23;20455;-88
2023/06/15 06:00:31;;;;;;;5.60;4.10;;;16.80;99.90;;;;;;6123203;23;20444;-88
2023/06/15 06:02:58;;;;;;;10.90;8.73;;;17.60;1.00;;;;;;6112947;23;20500;-88
2023/06/15 06:05:25;;;;;;;6.90;3.77;;;;;;;;;;6115492;23;20428;-87
2023/06/15 06:07:52;;;;;;;7.90;4.90;;;17.00;99.90;;;;;;6124502;23;20405;-86
2023/06/15 06:10:20;;;;;;;4.07;3.70;;;17.00;99.90;;;;;;6122870;23;20422;-89
2023/06/15 06:12:47;;;;;;;7.80;4.10;;;17.00;1.00;;;;;;6121973;23;20414;-86
2023/06/15 06:15:14;;;;;;;7.10;4.67;;;17.00;99.90;;;;;;6111063;23;20448;-88
2023/06/15 06:17:43;;;;;;;7.20;4.97;;;17.00;99.90;;;;;;6107904;23;20439;-85
2023/06/15 06:20:11;;;;;;;4.93;4.40;;;17.30;1.00;;;;;;6110117;23;20413;-84
2023/06/15 06:22:38;;;;;;;4.97;4.53;;;17.00;99.90;;;;;;6106057;23;20398;-84
2023/06/15 06:25:06;;;;;;;6.33;4.30;;;16.80;99.90;;;;;;6108822;23;20394;-85
2023/06/15 06:27:33;;;;;;;9.67;5.13;;;16.90;99.90;;;;;;6111043;23;20394;-84
2023/06/15 06:30:00;;;;;;;5.63;4.00;;;17.30;1.00;;;;;;6105786;23;20746;-84
2023/06/15 06:32:26;;;;;;;9.90;4.70;;;17.10;99.90;;;;;;6106489;23;20447;-86
2023/06/15 06:34:55;;;;;;;5.73;4.10;;;17.00;99.90;;;;;;6114360;23;20393;-82
2023/06/15 06:37:24;;;;;;;8.57;4.87;;;17.50;1.00;;;;;;6123473;23;20489;-84
2023/06/15 06:39:51;;;;;;;4.83;4.43;;;17.00;99.90;;;;;;6123566;23;20413;-84
2023/06/15 06:42:18;;;;;;;7.80;4.33;;;17.10;99.90;;;;;;6108601;23;20444;-85
2023/06/15 06:44:45;;;;;;;5.83;4.80;;;17.10;99.90;;;;;;6106443;23;20415;-86
2023/06/15 06:47:11;;;;;;;4.63;4.23;;;17.20;99.90;;;;;;6107684;23;20426;-86
2023/06/15 06:49:38;;;;;;;7.03;5.13;;;17.30;99.90;;;;;;6106911;23;20434;-85
2023/06/15 06:52:07;;;;;;;5.50;4.63;;;17.50;99.90;;;;;;6115217;23;20454;-86
2023/06/15 06:54:35;;;;;;;9.20;4.87;;;17.40;1.00;;;;;;6115483;23;20903;-85
2023/06/15 06:57:03;;;;;;;5.50;4.70;;;17.70;99.90;;;;;;6117972;23;20418;-86
2023/06/15 06:59:30;;;;;;;8.50;4.63;;;17.60;1.00;;;;;;6109159;23;20487;-84
2023/06/15 07:01:57;;;;;;;5.70;4.53;;;17.60;99.90;;;;;;6109574;23;20444;-86
2023/06/15 07:04:24;;;;;;;5.90;4.63;;;17.70;99.90;;;;;;6109143;23;20422;-85
2023/06/15 07:06:51;;;;;;;5.27;4.67;;;17.70;99.90;;;;;;6110486;23;20414;-84
2023/06/15 07:09:19;;;;;;;6.33;5.63;;;17.90;99.90;;;;;;6105178;23;20487;-87
2023/06/15 07:11:46;;;;;;;11.20;6.03;;;17.90;99.90;;;;;;6109368;23;20442;-85
2023/06/15 07:14:13;;;;;;;8.60;4.90;;;18.00;99.90;;;;;;6108338;23;20430;-84
2023/06/15 07:16:39;;;;;;;5.00;4.53;;;18.10;99.90;;;;;;6109119;23;20494;-85
2023/06/15 07:19:06;;;;;;;5.50;5.00;;;18.20;99.90;;;;;;6116736;23;20410;-84
2023/06/15 07:21:33;;;;;;;8.60;5.00;;;18.30;99.90;;;;;;6120581;23;20417;-85
2023/06/15 07:24:00;;;;;;;6.30;4.97;;;18.40;99.90;;;;;;6119266;23;20416;-85
2023/06/15 07:26:28;;;;;;;8.17;4.83;;;18.40;99.90;;;;;;6109705;23;20394;-85
2023/06/15 07:28:55;;;;;;;8.43;4.60;;;18.60;99.90;;;;;;6109059;23;20406;-86
2023/06/15 07:31:22;;;;;;;6.80;4.97;;;18.60;99.90;;;;;;6111586;23;20453;-83
2023/06/15 07:33:49;;;;;;;6.90;4.50;;;18.60;99.90;;;;;;6115371;23;20410;-83
2023/06/15 07:36:16;;;;;;;6.07;4.80;;;18.70;99.90;;;;;;6115837;23;20402;-85
2023/06/15 07:38:43;;;;;;;7.70;4.33;;;19.20;1.00;;;;;;6117535;23;20524;-85
2023/06/15 07:41:09;;;;;;;11.67;5.50;;;18.90;99.90;;;;;;6119354;23;20430;-85
2023/06/15 07:43:38;;;;;;;6.10;4.83;;;19.00;99.90;;;;;;6116375;23;20406;-85
2023/06/15 07:46:05;;;;;;;5.83;4.50;;;;;;;;;;6117136;23;20485;-85
2023/06/15 07:48:32;;;;;;;7.00;5.47;;;19.00;99.90;;;;;;6118202;23;20403;-84
2023/06/15 07:50:59;;;;;;;9.90;5.37;;;19.20;99.90;;;;;;6118806;23;20490;-85
2023/06/15 07:53:26;;;;;;;6.40;4.60;;;19.20;99.90;;;;;;6116424;23;20394;-84
2023/06/15 07:55:53;;;;;;;5.77;5.20;;;19.10;99.90;;;;;;6116955;23;20403;-86
2023/06/15 07:58:20;;;;;;;4.73;4.33;;;19.10;99.90;;;;;;6118326;23;20581;-85
2023/06/15 08:00:48;;;;;;;8.10;5.00;;;19.50;1.00;;;;;;6120146;23;20758;-85
2023/06/15 08:03:15;;;;;;;9.57;5.50;;;19.10;99.90;;;;;;6113287;23;20437;-85
2023/06/15 08:05:42;;;;;;;5.17;4.70;;;19.00;99.90;;;;;;6117447;23;20461;-85
2023/06/15 08:08:09;;;;;;;8.43;4.50;;;19.00;99.90;;;;;;6116563;23;20415;-85
2023/06/15 08:10:36;;;;;;;19.30;7.70;;;18.90;99.90;;;;;;6118741;23;20426;-86
2023/06/15 08:13:03;;;;;;;8.50;5.20;;;18.90;99.90;;;;;;6118839;23;20405;-84
2023/06/15 08:15:30;;;;;;;5.50;5.00;;;18.90;99.90;;;;;;6114884;23;20474;-85
2023/06/15 08:17:59;;;;;;;7.97;4.90;;;18.90;99.90;;;;;;6115228;23;20445;-85
2023/06/15 08:20:26;;;;;;;8.07;5.73;;;19.10;99.90;;;;;;6114795;23;20450;-85
2023/06/15 08:22:53;;;;;;;9.00;5.23;;;19.20;99.90;;;;;;6116922;23;20414;-85
2023/06/15 08:25:20;;;;;;;7.70;5.30;;;;;;;;;;6116772;23;20445;-85
2023/06/15 08:27:47;;;;;;;10.63;5.03;;;19.40;99.90;;;;;;6115699;23;20414;-85
2023/06/15 08:30:16;;;;;;;8.70;5.00;;;19.70;1.00;;;;;;6112614;23;20418;-87
2023/06/15 08:32:43;;;;;;;6.17;4.97;;;19.40;99.90;;;;;;6115301;23;20406;-85
2023/06/15 08:35:11;;;;;;;10.80;6.53;;;19.50;99.90;;;;;;6112876;23;20430;-85
2023/06/15 08:37:38;;;;;;;5.73;5.23;;;19.70;1.00;;;;;;6113519;23;20823;-86
2023/06/15 08:40:08;;;;;;;10.00;5.80;;;20.00;1.00;;;;;;6114877;23;20417;-86
2023/06/15 08:42:35;;;;;;;7.37;5.57;;;;;;;;;;6120238;23;20389;-84
2023/06/15 08:45:05;;;;;;;6.43;4.90;;;20.20;99.90;;;;;;6121684;23;20440;-84
2023/06/15 08:47:33;;;;;;;6.27;5.67;;;20.20;99.90;;;;;;6123326;23;20397;-84
2023/06/15 08:50:01;;;;;;;13.10;6.13;;;20.00;1.00;;;;;;6122957;23;20406;-85
2023/06/15 08:52:33;;;;;;;9.67;5.10;;;20.10;99.90;;;;;;6122122;23;20407;-86
2023/06/15 08:55:02;;;;;;;6.47;5.10;;;20.30;99.90;;;;;;6118371;23;20418;-86
2023/06/15 08:57:29;;;;;;;9.60;5.90;;;;;;;;;;6120586;23;20450;-85
2023/06/15 08:59:56;;;;;;;6.10;5.50;;;20.40;99.90;;;;;;6113142;23;20410;-86
2023/06/15 09:02:26;;;;;;;6.97;5.50;;;20.40;99.90;;;;;;6110975;23;20406;-86
2023/06/15 09:04:53;;;;;;;6.10;5.60;;;20.70;99.90;;;;;;6119486;23;20414;-83
2023/06/15 09:07:20;;;;;;;8.80;5.50;;;20.70;99.90;;;;;;6121717;23;20402;-83
2023/06/15 09:10:17;;;;;;;7.17;5.97;;;20.90;99.90;;;;;;6121934;23;20386;-85
2023/06/15 09:12:45;;;;;;;5.20;4.80;;;21.00;99.90;;;;;;6122565;23;20768;-85
2023/06/15 09:15:17;;;;;;;10.23;6.20;;;21.10;99.90;;;;;;6120348;23;20441;-85
2023/06/15 09:17:44;;;;;;;7.23;5.00;;;21.20;99.90;;;;;;6115764;23;20466;-86
2023/06/15 09:20:12;;;;;;;6.67;4.83;;;21.20;1.00;;;;;;6118442;23;20409;-84
2023/06/15 09:22:43;;;;;;;6.73;5.50;;;21.30;99.90;;;;;;6117433;23;20416;-84
2023/06/15 09:25:16;;;;;;;8.10;5.10;;;21.30;99.90;;;;;;6117136;23;20414;-85
2023/06/15 09:27:55;;;;;;;5.90;5.03;;;21.30;99.90;;;;;;6118000;23;20433;-86
2023/06/15 09:30:22;;;;;;;6.63;4.90;;;21.60;99.90;;;;;;6113612;23;20437;-86
2023/06/15 09:32:50;;;;;;;6.50;5.70;;;21.30;1.00;;;;;;6120976;23;20402;-85
2023/06/15 09:35:17;;;;;;;7.93;5.50;;;;;;;;;;6125043;23;20441;-83
2023/06/15 09:37:44;;;;;;;5.80;4.27;;;22.00;1.00;;;;;;6123343;23;20442;-83
2023/06/15 09:40:12;;;;;;;5.30;4.90;;;21.40;1.00;;;;;;6110978;23;20410;-86
2023/06/15 09:42:41;;;;;;;6.23;5.63;;;21.40;99.90;;;;;;6108992;23;20414;-86
2023/06/15 09:45:10;;;;;;;10.17;6.90;;;21.50;99.90;;;;;;6117557;23;20475;-86
2023/06/15 09:47:38;;;;;;;5.90;5.40;;;21.50;99.90;;;;;;6111786;23;20410;-85
2023/06/15 09:50:10;;;;;;;11.73;5.00;;;21.70;1.00;;;;;;6109788;23;20422;-85
2023/06/15 09:52:42;;;;;;;8.93;5.97;;;21.60;1.00;;;;;;6118385;23;20381;-86
2023/06/15 09:55:10;;;;;;;5.70;4.50;;;21.30;99.90;;;;;;6121601;23;20399;-85
2023/06/15 09:57:37;;;;;;;5.10;4.60;;;21.30;99.90;;;;;;6109439;23;20453;-85
2023/06/15 10:00:07;;;;;;;4.53;4.13;;;21.50;1.00;;;;;;6111301;23;20420;-85
2023/06/15 10:02:39;;;;;;;4.73;4.20;;;21.10;99.90;;;;;;6110959;23;20409;-86
2023/06/15 10:05:12;;;;;;;4.30;4.00;;;21.10;99.90;;;;;;6109894;23;20395;-86
2023/06/15 10:07:40;;;;;;;9.40;4.97;;;21.20;99.90;;;;;;6110862;23;20399;-85
2023/06/15 10:10:09;;;;;;;8.43;4.90;;;21.50;1.00;;;;;;6109120;23;20417;-86
2023/06/15 10:12:40;;;;;;;5.80;5.30;;;21.10;99.90;;;;;;6110568;23;20425;-86
2023/06/15 10:15:12;;;;;;;8.40;5.07;;;21.10;99.90;;;;;;6109399;23;20496;-86
2023/06/15 10:17:46;;;;;;;8.23;5.30;;;21.00;99.90;;;;;;6109040;23;20391;-84
2023/06/15 10:20:17;;;;;;;6.07;5.40;;;20.80;1.00;;;;;;6112057;23;20398;-86
2023/06/15 10:22:51;;;;;;;5.20;4.70;;;20.80;99.90;;;;;;6111105;23;20398;-85
2023/06/15 10:25:20;;;;;;;6.10;5.50;;;20.80;99.90;;;;;;6103929;23;20402;-86
2023/06/15 10:27:48;;;;;;;5.47;4.97;;;;;;;;;;6103023;23;20418;-86
2023/06/15 10:30:26;;;;;;;13.40;6.07;;;20.80;1.00;;;;;;6102951;23;20934;-85
2023/06/15 10:33:00;;;;;;;7.50;5.23;;;20.60;1.00;;;;;;6104843;23;20394;-85
2023/06/15 10:35:34;;;;;;;7.33;5.90;;;20.80;99.90;;;;;;6106459;23;20394;-86
2023/06/15 10:38:16;;;;;;;5.40;4.90;;;20.80;99.90;;;;;;6107360;23;20431;-86
2023/06/15 10:40:47;;;;;;;6.40;5.70;;;20.90;99.90;;;;;;6110707;23;20438;-85
2023/06/15 10:43:18;;;;;;;8.23;5.03;;;20.80;99.90;;;;;;6119772;23;20422;-84
2023/06/15 10:45:45;;;;;;;6.80;5.10;;;20.90;99.90;;;;;;6121140;23;20408;-85
2023/06/15 10:48:21;;;;;;;6.90;4.67;;;20.80;99.90;;;;;;6116553;23;20412;-86
2023/06/15 10:50:50;;;;;;;4.70;4.30;;;20.50;1.00;;;;;;6112939;23;20426;-84
2023/06/15 10:53:25;;;;;;;7.27;4.30;;;20.80;99.90;;;;;;6105126;23;20508;-84
2023/06/15 10:55:55;;;;;;;9.20;5.00;;;20.80;99.90;;;;;;6106737;23;20525;-84
2023/06/15 10:58:24;;;;;;;10.60;4.87;;;20.80;99.90;;;;;;6106927;23;20829;-86
2023/06/15 11:01:06;;;;;;;4.50;4.10;;;20.80;99.90;;;;;;6107075;23;20434;-86
2023/06/15 11:03:34;;;;;;;6.70;5.80;;;20.90;99.90;;;;;;6108266;23;20418;-85
2023/06/15 11:06:03;;;;;;;4.70;4.40;;;20.80;99.90;;;;;;6108265;23;20416;-85
2023/06/15 11:08:46;;;;;;;7.30;4.60;;;20.70;99.90;;;;;;6109539;23;20414;-85
2023/06/15 11:11:14;;;;;;;7.20;5.40;;;20.70;99.90;;;;;;6107649;23;20461;-87
2023/06/15 11:13:59;;;;;;;8.47;4.30;;;20.60;99.90;;;;;;6113176;23;20409;-84
2023/06/15 11:16:29;;;;;;;5.13;4.63;;;20.60;99.90;;;;;;6122401;23;20389;-84
2023/06/15 11:19:19;;;;;;;4.60;4.20;;;20.60;99.90;;;;;;6122674;23;20457;-83
2023/06/15 11:21:56;;;;;;;5.50;4.77;;;20.60;99.90;;;;;;6102972;23;20442;-86
2023/06/15 11:24:24;;;;;;;6.30;5.80;;;20.60;99.90;;;;;;6107871;23;20410;-86
2023/06/15 11:26:52;;;;;;;4.93;4.43;;;20.60;99.90;;;;;;6107885;23;20469;-85
2023/06/15 11:29:22;;;;;;;5.73;4.00;;;20.40;1.00;;;;;;6112051;23;20465;-86
2023/06/15 11:31:49;;;;;;;8.07;3.80;;;20.50;99.90;;;;;;6112596;23;20445;-86
2023/06/15 11:34:18;;;;;;;5.20;3.60;;;20.60;99.90;;;;;;6110969;23;20442;-85
2023/06/15 11:36:45;;;;;;;4.10;3.70;;;20.50;1.00;;;;;;6119338;23;20434;-85
2023/06/15 11:39:22;;;;;;;15.73;12.20;;;20.60;99.90;;;;;;6120866;23;20481;-85
2023/06/15 11:41:50;;;;;;;6.00;4.43;;;20.90;1.00;;;;;;6122488;23;20466;-88
2023/06/15 11:44:18;;;;;;;7.03;5.20;;;20.70;99.90;;;;;;6118976;23;20436;-86
2023/06/15 11:46:53;;;;;;;3.87;3.47;;;20.80;99.90;;;;;;6124161;23;20394;-82
2023/06/15 11:49:21;;;;;;;7.33;3.73;;;20.50;1.00;;;;;;6123946;23;20418;-84
2023/06/15 11:51:51;;;;;;;5.37;3.83;;;20.80;99.90;;;;;;6111807;23;20429;-85
2023/06/15 11:54:18;;;;;;;6.30;4.13;;;20.90;99.90;;;;;;6118816;23;20390;-84
2023/06/15 11:56:46;;;;;;;3.90;3.43;;;21.00;99.90;;;;;;6117986;23;20433;-83
2023/06/15 11:59:15;;;;;;;5.30;4.07;;;21.00;99.90;;;;;;6114103;23;20442;-87
2023/06/15 12:01:42;;;;;;;5.30;4.40;;;20.90;99.90;;;;;;6109319;23;20498;-85
2023/06/15 12:04:13;;;;;;;4.80;4.30;;;20.80;99.90;;;;;;6110750;23;20406;-85
2023/06/15 12:06:42;;;;;;;4.00;3.70;;;20.80;99.90;;;;;;6112042;23;20394;-85
2023/06/15 12:09:09;;;;;;;6.17;3.87;;;20.60;1.00;;;;;;6113546;23;20407;-84
2023/06/15 12:11:36;;;;;;;6.10;4.10;;;21.00;99.90;;;;;;6113932;23;20430;-85
2023/06/15 12:14:07;;;;;;;7.67;4.23;;;21.00;99.90;;;;;;6111186;23;20484;-86
2023/06/15 12:16:34;;;;;;;5.20;4.70;;;20.80;1.00;;;;;;6109012;23;20398;-87
2023/06/15 12:19:02;;;;;;;5.53;5.03;;;;;;;;;;6111401;23;20477;-84
2023/06/15 12:21:30;;;;;;;5.80;4.57;;;20.90;99.90;;;;;;6109171;23;20436;-86
2023/06/15 12:23:59;;;;;;;5.00;3.77;;;20.80;99.90;;;;;;6112255;23;20751;-86
2023/06/15 12:26:31;;;;;;;3.97;3.67;;;21.00;99.90;;;;;;6112633;23;20425;-86
2023/06/15 12:28:58;;;;;;;5.00;4.00;;;21.10;1.00;;;;;;6110703;23;20402;-86
2023/06/15 12:31:32;;;;;;;4.03;3.73;;;21.20;99.90;;;;;;6109585;23;20434;-87
2023/06/15 12:34:05;;;;;;;7.80;4.00;;;21.10;1.00;;;;;;6117603;23;20398;-84
2023/06/15 12:36:32;;;;;;;4.50;3.80;;;21.50;99.90;;;;;;6124845;23;20397;-84
2023/06/15 12:39:04;;;;;;;8.87;5.87;;;21.70;99.90;;;;;;6116710;23;20449;-86
2023/06/15 12:41:31;;;;;;;7.40;4.40;;;21.80;1.00;;;;;;6108304;23;20446;-86
2023/06/15 12:43:58;;;;;;;5.13;4.00;;;21.90;99.90;;;;;;6108988;23;20530;-86
2023/06/15 12:46:25;;;;;;;5.13;4.63;;;22.00;99.90;;;;;;6109267;23;20429;-85
2023/06/15 12:48:52;;;;;;;8.83;7.13;;;21.90;99.90;;;;;;6109630;23;20410;-85
2023/06/15 12:51:19;;;;;;;4.97;4.30;;;21.90;99.90;;;;;;6112374;23;20493;-85
2023/06/15 12:53:46;;;;;;;5.83;4.57;;;21.80;99.90;;;;;;6118943;23;20406;-86
2023/06/15 12:56:14;;;;;;;4.27;3.87;;;21.70;99.90;;;;;;6114449;23;20899;-83
2023/06/15 12:58:41;;;;;;;4.40;3.57;;;21.30;1.00;;;;;;6107572;23;20433;-83
2023/06/15 13:01:08;;;;;;;5.07;3.87;;;21.60;99.90;;;;;;6107609;23;20481;-84